sensor_id;sensor_type;location;lat;lon;timestamp;P1;durP1;ratioP1;P2;durP2;ratioP2
29184;SDS011;16233;47.964;-3.842;2022-11-04T00:01:55;24.23;;;21.70;;
29184;SDS011;16233;47.964;-3.842;2022-11-04T00:03:57;22.08;;;20.13;;
29184;SDS011;16233;47.964;-3.842;2022-11-04T00:05:59;20.63;;;18.70;;
29184;SDS011;16233;47.964;-3.842;2022-11-04T00:08:00;23.33;;;20.50;;
29184;SDS011;16233;47.964;-3.842;2022-11-04T00:10:01;24.70;;;22.45;;
29184;SDS011;16233;47.964;-3.842;2022-11-04T00:12:05;22.20;;;20.10;;
29184;SDS011;16233;47.964;-3.842;2022-11-04T00:14:06;21.50;;;19.38;;
29184;SDS011;16233;47.964;-3.842;2022-11-04T00:16:08;23.73;;;21.73;;
29184;SDS011;16233;47.964;-3.842;2022-11-04T00:18:11;22.42;;;20.40;;
29184;SDS011;16233;47.964;-3.842;2022-11-04T00:20:12;22.95;;;20.98;;
29184;SDS011;16233;47.964;-3.842;2022-11-04T00:22:13;22.23;;;20.38;;
29184;SDS011;16233;47.964;-3.842;2022-11-04T00:24:14;23.15;;;18.58;;
29184;SDS011;16233;47.964;-3.842;2022-11-04T00:26:15;27.02;;;19.95;;
29184;SDS011;16233;47.964;-3.842;2022-11-04T00:28:16;22.48;;;20.35;;
29184;SDS011;16233;47.964;-3.842;2022-11-04T00:30:18;21.60;;;19.50;;
29184;SDS011;16233;47.964;-3.842;2022-11-04T00:32:19;24.13;;;18.70;;
29184;SDS011;16233;47.964;-3.842;2022-11-04T00:34:21;20.42;;;18.60;;
29184;SDS011;16233;47.964;-3.842;2022-11-04T00:36:23;20.27;;;18.48;;
29184;SDS011;16233;47.964;-3.842;2022-11-04T00:38:25;21.55;;;19.30;;
29184;SDS011;16233;47.964;-3.842;2022-11-04T00:40:26;22.73;;;20.38;;
29184;SDS011;16233;47.964;-3.842;2022-11-04T00:42:27;20.02;;;18.20;;
29184;SDS011;16233;47.964;-3.842;2022-11-04T00:44:28;21.02;;;17.20;;
29184;SDS011;16233;47.964;-3.842;2022-11-04T00:46:29;21.83;;;18.17;;
29184;SDS011;16233;47.964;-3.842;2022-11-04T00:48:31;19.92;;;17.08;;
29184;SDS011;16233;47.964;-3.842;2022-11-04T00:50:33;23.40;;;21.63;;
29184;SDS011;16233;47.964;-3.842;2022-11-04T00:52:35;20.55;;;18.52;;
29184;SDS011;16233;47.964;-3.842;2022-11-04T00:54:36;22.75;;;20.42;;
29184;SDS011;16233;47.964;-3.842;2022-11-04T00:56:37;21.67;;;18.48;;
29184;SDS011;16233;47.964;-3.842;2022-11-04T00:58:38;21.52;;;18.50;;
29184;SDS011;16233;47.964;-3.842;2022-11-04T01:00:40;23.10;;;18.13;;
29184;SDS011;16233;47.964;-3.842;2022-11-04T01:02:41;21.73;;;19.40;;
29184;SDS011;16233;47.964;-3.842;2022-11-04T01:04:42;20.48;;;18.45;;
29184;SDS011;16233;47.964;-3.842;2022-11-04T01:06:44;25.42;;;20.27;;
29184;SDS011;16233;47.964;-3.842;2022-11-04T01:08:45;21.30;;;18.55;;
29184;SDS011;16233;47.964;-3.842;2022-11-04T01:10:47;21.35;;;19.60;;
29184;SDS011;16233;47.964;-3.842;2022-11-04T01:12:48;20.98;;;18.95;;
29184;SDS011;16233;47.964;-3.842;2022-11-04T01:14:51;22.48;;;20.23;;
29184;SDS011;16233;47.964;-3.842;2022-11-04T01:16:52;20.48;;;18.48;;
29184;SDS011;16233;47.964;-3.842;2022-11-04T01:18:53;21.40;;;17.30;;
29184;SDS011;16233;47.964;-3.842;2022-11-04T01:20:54;20.65;;;18.83;;
29184;SDS011;16233;47.964;-3.842;2022-11-04T01:23:02;28.65;;;18.35;;
29184;SDS011;16233;47.964;-3.842;2022-11-04T01:25:03;29.08;;;19.05;;
29184;SDS011;16233;47.964;-3.842;2022-11-04T01:27:05;20.30;;;18.20;;
29184;SDS011;16233;47.964;-3.842;2022-11-04T01:29:06;21.98;;;20.08;;
29184;SDS011;16233;47.964;-3.842;2022-11-04T01:31:07;21.38;;;19.95;;
29184;SDS011;16233;47.964;-3.842;2022-11-04T01:33:09;20.70;;;19.00;;
29184;SDS011;16233;47.964;-3.842;2022-11-04T01:35:10;18.55;;;17.05;;
29184;SDS011;16233;47.964;-3.842;2022-11-04T01:37:11;21.98;;;19.50;;
29184;SDS011;16233;47.964;-3.842;2022-11-04T01:39:13;18.52;;;16.75;;
29184;SDS011;16233;47.964;-3.842;2022-11-04T01:41:15;19.20;;;17.73;;
29184;SDS011;16233;47.964;-3.842;2022-11-04T01:43:18;19.23;;;17.55;;
29184;SDS011;16233;47.964;-3.842;2022-11-04T01:45:21;18.88;;;17.30;;
29184;SDS011;16233;47.964;-3.842;2022-11-04T01:47:23;19.58;;;17.58;;
29184;SDS011;16233;47.964;-3.842;2022-11-04T01:49:29;19.77;;;18.10;;
29184;SDS011;16233;47.964;-3.842;2022-11-04T01:51:33;20.42;;;18.55;;
29184;SDS011;16233;47.964;-3.842;2022-11-04T01:53:38;18.75;;;17.25;;
29184;SDS011;16233;47.964;-3.842;2022-11-04T01:55:44;18.88;;;17.10;;
29184;SDS011;16233;47.964;-3.842;2022-11-04T01:57:51;20.73;;;19.00;;
29184;SDS011;16233;47.964;-3.842;2022-11-04T01:59:54;22.25;;;17.95;;
29184;SDS011;16233;47.964;-3.842;2022-11-04T02:01:59;23.13;;;17.95;;
29184;SDS011;16233;47.964;-3.842;2022-11-04T02:04:00;18.27;;;16.40;;
29184;SDS011;16233;47.964;-3.842;2022-11-04T02:06:01;19.50;;;17.63;;
29184;SDS011;16233;47.964;-3.842;2022-11-04T02:08:03;23.02;;;18.10;;
29184;SDS011;16233;47.964;-3.842;2022-11-04T02:10:06;29.75;;;17.48;;
29184;SDS011;16233;47.964;-3.842;2022-11-04T02:12:09;21.30;;;17.17;;
29184;SDS011;16233;47.964;-3.842;2022-11-04T02:14:10;21.67;;;18.33;;
29184;SDS011;16233;47.964;-3.842;2022-11-04T02:16:12;25.20;;;17.77;;
29184;SDS011;16233;47.964;-3.842;2022-11-04T02:18:21;19.17;;;17.25;;
29184;SDS011;16233;47.964;-3.842;2022-11-04T02:20:43;18.55;;;16.67;;
29184;SDS011;16233;47.964;-3.842;2022-11-04T02:23:03;32.85;;;17.52;;
29184;SDS011;16233;47.964;-3.842;2022-11-04T02:25:29;25.17;;;18.02;;
29184;SDS011;16233;47.964;-3.842;2022-11-04T02:27:54;18.67;;;17.08;;
29184;SDS011;16233;47.964;-3.842;2022-11-04T02:30:15;20.83;;;18.48;;
29184;SDS011;16233;47.964;-3.842;2022-11-04T02:32:20;23.35;;;17.80;;
29184;SDS011;16233;47.964;-3.842;2022-11-04T02:34:28;29.00;;;22.10;;
29184;SDS011;16233;47.964;-3.842;2022-11-04T02:36:39;23.73;;;21.33;;
29184;SDS011;16233;47.964;-3.842;2022-11-04T02:38:47;21.33;;;17.63;;
29184;SDS011;16233;47.964;-3.842;2022-11-04T02:40:53;22.13;;;18.77;;
29184;SDS011;16233;47.964;-3.842;2022-11-04T02:43:01;22.63;;;20.30;;
29184;SDS011;16233;47.964;-3.842;2022-11-04T02:45:13;22.30;;;19.98;;
29184;SDS011;16233;47.964;-3.842;2022-11-04T02:47:20;25.77;;;21.65;;
29184;SDS011;16233;47.964;-3.842;2022-11-04T02:49:26;21.13;;;18.98;;
29184;SDS011;16233;47.964;-3.842;2022-11-04T02:51:31;21.17;;;17.77;;
29184;SDS011;16233;47.964;-3.842;2022-11-04T02:53:35;25.67;;;19.08;;
29184;SDS011;16233;47.964;-3.842;2022-11-04T02:55:41;20.88;;;18.13;;
29184;SDS011;16233;47.964;-3.842;2022-11-04T02:57:45;24.30;;;20.30;;
29184;SDS011;16233;47.964;-3.842;2022-11-04T02:59:48;28.02;;;20.05;;
29184;SDS011;16233;47.964;-3.842;2022-11-04T03:01:56;22.80;;;20.42;;
29184;SDS011;16233;47.964;-3.842;2022-11-04T03:04:00;20.75;;;18.70;;
29184;SDS011;16233;47.964;-3.842;2022-11-04T03:06:07;20.30;;;18.33;;
29184;SDS011;16233;47.964;-3.842;2022-11-04T03:08:11;30.75;;;19.80;;
29184;SDS011;16233;47.964;-3.842;2022-11-04T03:10:18;21.77;;;19.67;;
29184;SDS011;16233;47.964;-3.842;2022-11-04T03:12:23;19.45;;;17.77;;
29184;SDS011;16233;47.964;-3.842;2022-11-04T03:14:29;22.38;;;20.48;;
29184;SDS011;16233;47.964;-3.842;2022-11-04T03:16:36;29.17;;;26.33;;
29184;SDS011;16233;47.964;-3.842;2022-11-04T03:18:41;103.78;;;80.90;;
29184;SDS011;16233;47.964;-3.842;2022-11-04T03:20:48;22.88;;;21.13;;
29184;SDS011;16233;47.964;-3.842;2022-11-04T03:22:50;24.67;;;22.30;;
29184;SDS011;16233;47.964;-3.842;2022-11-04T03:24:51;26.48;;;24.17;;
29184;SDS011;16233;47.964;-3.842;2022-11-04T03:26:54;22.42;;;20.45;;
29184;SDS011;16233;47.964;-3.842;2022-11-04T03:29:02;22.90;;;18.85;;
29184;SDS011;16233;47.964;-3.842;2022-11-04T03:31:13;35.08;;;29.67;;
29184;SDS011;16233;47.964;-3.842;2022-11-04T03:33:23;20.30;;;18.45;;
29184;SDS011;16233;47.964;-3.842;2022-11-04T03:35:29;20.88;;;19.02;;
29184;SDS011;16233;47.964;-3.842;2022-11-04T03:37:30;28.23;;;21.27;;
29184;SDS011;16233;47.964;-3.842;2022-11-04T03:39:31;21.45;;;19.45;;
29184;SDS011;16233;47.964;-3.842;2022-11-04T03:41:37;23.17;;;21.02;;
29184;SDS011;16233;47.964;-3.842;2022-11-04T03:43:44;23.77;;;21.40;;
29184;SDS011;16233;47.964;-3.842;2022-11-04T03:45:45;27.65;;;18.73;;
29184;SDS011;16233;47.964;-3.842;2022-11-04T03:47:46;22.85;;;20.38;;
29184;SDS011;16233;47.964;-3.842;2022-11-04T03:49:47;21.08;;;19.05;;
29184;SDS011;16233;47.964;-3.842;2022-11-04T03:51:51;20.15;;;18.17;;
29184;SDS011;16233;47.964;-3.842;2022-11-04T03:53:52;22.70;;;19.63;;
29184;SDS011;16233;47.964;-3.842;2022-11-04T03:55:59;20.67;;;18.60;;
29184;SDS011;16233;47.964;-3.842;2022-11-04T03:58:15;22.80;;;16.63;;
29184;SDS011;16233;47.964;-3.842;2022-11-04T04:00:26;21.27;;;17.65;;
29184;SDS011;16233;47.964;-3.842;2022-11-04T04:02:35;25.30;;;18.58;;
29184;SDS011;16233;47.964;-3.842;2022-11-04T04:04:48;22.00;;;19.50;;
29184;SDS011;16233;47.964;-3.842;2022-11-04T04:06:57;22.67;;;20.27;;
29184;SDS011;16233;47.964;-3.842;2022-11-04T04:09:04;21.38;;;18.13;;
29184;SDS011;16233;47.964;-3.842;2022-11-04T04:11:12;23.42;;;20.08;;
29184;SDS011;16233;47.964;-3.842;2022-11-04T04:13:19;23.73;;;21.83;;
29184;SDS011;16233;47.964;-3.842;2022-11-04T04:15:27;19.83;;;17.67;;
29184;SDS011;16233;47.964;-3.842;2022-11-04T04:17:34;20.45;;;18.50;;
29184;SDS011;16233;47.964;-3.842;2022-11-04T04:19:38;19.35;;;17.75;;
29184;SDS011;16233;47.964;-3.842;2022-11-04T04:21:42;20.30;;;18.40;;
29184;SDS011;16233;47.964;-3.842;2022-11-04T04:23:49;21.27;;;19.45;;
29184;SDS011;16233;47.964;-3.842;2022-11-04T04:25:52;22.33;;;18.00;;
29184;SDS011;16233;47.964;-3.842;2022-11-04T04:27:56;21.98;;;20.08;;
29184;SDS011;16233;47.964;-3.842;2022-11-04T04:29:57;19.30;;;17.20;;
29184;SDS011;16233;47.964;-3.842;2022-11-04T04:32:01;19.17;;;17.45;;
29184;SDS011;16233;47.964;-3.842;2022-11-04T04:34:04;24.75;;;19.80;;
29184;SDS011;16233;47.964;-3.842;2022-11-04T04:36:06;24.05;;;17.45;;
29184;SDS011;16233;47.964;-3.842;2022-11-04T04:38:13;19.52;;;17.80;;
29184;SDS011;16233;47.964;-3.842;2022-11-04T04:40:21;21.30;;;17.63;;
29184;SDS011;16233;47.964;-3.842;2022-11-04T04:42:29;23.25;;;21.17;;
29184;SDS011;16233;47.964;-3.842;2022-11-04T04:44:31;19.92;;;17.83;;
29184;SDS011;16233;47.964;-3.842;2022-11-04T04:46:32;19.73;;;17.95;;
29184;SDS011;16233;47.964;-3.842;2022-11-04T04:48:34;21.33;;;19.17;;
29184;SDS011;16233;47.964;-3.842;2022-11-04T04:50:36;20.88;;;16.65;;
29184;SDS011;16233;47.964;-3.842;2022-11-04T04:52:41;19.23;;;17.55;;
29184;SDS011;16233;47.964;-3.842;2022-11-04T04:54:45;19.20;;;17.92;;
29184;SDS011;16233;47.964;-3.842;2022-11-04T04:56:48;17.67;;;16.25;;
29184;SDS011;16233;47.964;-3.842;2022-11-04T04:58:49;19.35;;;17.48;;
29184;SDS011;16233;47.964;-3.842;2022-11-04T05:00:50;21.52;;;19.40;;
29184;SDS011;16233;47.964;-3.842;2022-11-04T05:02:51;18.75;;;16.88;;
29184;SDS011;16233;47.964;-3.842;2022-11-04T05:04:52;22.65;;;19.15;;
29184;SDS011;16233;47.964;-3.842;2022-11-04T05:06:53;19.17;;;17.38;;
29184;SDS011;16233;47.964;-3.842;2022-11-04T05:08:54;21.23;;;19.08;;
29184;SDS011;16233;47.964;-3.842;2022-11-04T05:10:55;20.83;;;17.92;;
29184;SDS011;16233;47.964;-3.842;2022-11-04T05:12:59;23.02;;;20.52;;
29184;SDS011;16233;47.964;-3.842;2022-11-04T05:15:00;21.27;;;19.30;;
29184;SDS011;16233;47.964;-3.842;2022-11-04T05:17:01;20.63;;;16.92;;
29184;SDS011;16233;47.964;-3.842;2022-11-04T05:19:02;25.25;;;17.10;;
29184;SDS011;16233;47.964;-3.842;2022-11-04T05:21:03;27.65;;;19.65;;
29184;SDS011;16233;47.964;-3.842;2022-11-04T05:23:05;24.23;;;21.92;;
29184;SDS011;16233;47.964;-3.842;2022-11-04T05:25:07;30.65;;;20.45;;
29184;SDS011;16233;47.964;-3.842;2022-11-04T05:27:08;21.73;;;19.15;;
29184;SDS011;16233;47.964;-3.842;2022-11-04T05:29:10;22.40;;;18.45;;
29184;SDS011;16233;47.964;-3.842;2022-11-04T05:31:11;22.45;;;18.42;;
29184;SDS011;16233;47.964;-3.842;2022-11-04T05:33:12;22.05;;;18.35;;
29184;SDS011;16233;47.964;-3.842;2022-11-04T05:35:13;32.22;;;19.90;;
29184;SDS011;16233;47.964;-3.842;2022-11-04T05:37:14;24.65;;;18.65;;
29184;SDS011;16233;47.964;-3.842;2022-11-04T05:39:15;25.42;;;19.17;;
29184;SDS011;16233;47.964;-3.842;2022-11-04T05:41:16;22.65;;;17.15;;
29184;SDS011;16233;47.964;-3.842;2022-11-04T05:43:18;23.48;;;18.55;;
29184;SDS011;16233;47.964;-3.842;2022-11-04T05:45:20;21.40;;;18.35;;
29184;SDS011;16233;47.964;-3.842;2022-11-04T05:47:21;19.73;;;17.88;;
29184;SDS011;16233;47.964;-3.842;2022-11-04T05:49:22;19.65;;;18.13;;
29184;SDS011;16233;47.964;-3.842;2022-11-04T05:51:24;20.90;;;17.80;;
29184;SDS011;16233;47.964;-3.842;2022-11-04T05:53:26;19.63;;;17.48;;
29184;SDS011;16233;47.964;-3.842;2022-11-04T05:55:27;18.15;;;16.30;;
29184;SDS011;16233;47.964;-3.842;2022-11-04T05:57:28;23.15;;;19.67;;
29184;SDS011;16233;47.964;-3.842;2022-11-04T05:59:29;32.10;;;19.27;;
29184;SDS011;16233;47.964;-3.842;2022-11-04T06:01:32;22.45;;;17.80;;
29184;SDS011;16233;47.964;-3.842;2022-11-04T06:03:33;20.48;;;16.52;;
29184;SDS011;16233;47.964;-3.842;2022-11-04T06:05:34;20.77;;;17.83;;
29184;SDS011;16233;47.964;-3.842;2022-11-04T06:07:35;21.40;;;16.60;;
29184;SDS011;16233;47.964;-3.842;2022-11-04T06:09:36;20.65;;;18.25;;
29184;SDS011;16233;47.964;-3.842;2022-11-04T06:11:38;21.88;;;18.60;;
29184;SDS011;16233;47.964;-3.842;2022-11-04T06:13:39;20.65;;;15.60;;
29184;SDS011;16233;47.964;-3.842;2022-11-04T06:15:40;21.98;;;18.50;;
29184;SDS011;16233;47.964;-3.842;2022-11-04T06:17:43;19.17;;;17.20;;
29184;SDS011;16233;47.964;-3.842;2022-11-04T06:19:44;21.48;;;18.50;;
29184;SDS011;16233;47.964;-3.842;2022-11-04T06:21:45;19.73;;;16.58;;
29184;SDS011;16233;47.964;-3.842;2022-11-04T06:23:46;24.33;;;18.55;;
29184;SDS011;16233;47.964;-3.842;2022-11-04T06:25:48;28.05;;;17.02;;
29184;SDS011;16233;47.964;-3.842;2022-11-04T06:27:52;29.25;;;17.85;;
29184;SDS011;16233;47.964;-3.842;2022-11-04T06:29:54;24.80;;;18.38;;
29184;SDS011;16233;47.964;-3.842;2022-11-04T06:31:56;30.27;;;18.13;;
29184;SDS011;16233;47.964;-3.842;2022-11-04T06:33:59;23.77;;;16.98;;
29184;SDS011;16233;47.964;-3.842;2022-11-04T06:36:01;22.75;;;18.15;;
29184;SDS011;16233;47.964;-3.842;2022-11-04T06:38:04;26.98;;;17.27;;
29184;SDS011;16233;47.964;-3.842;2022-11-04T06:40:06;28.40;;;17.73;;
29184;SDS011;16233;47.964;-3.842;2022-11-04T06:42:07;21.95;;;17.38;;
29184;SDS011;16233;47.964;-3.842;2022-11-04T06:44:08;24.05;;;18.80;;
29184;SDS011;16233;47.964;-3.842;2022-11-04T06:46:22;20.98;;;17.50;;
29184;SDS011;16233;47.964;-3.842;2022-11-04T06:48:25;22.90;;;17.52;;
29184;SDS011;16233;47.964;-3.842;2022-11-04T06:50:28;20.08;;;18.00;;
29184;SDS011;16233;47.964;-3.842;2022-11-04T06:52:30;22.30;;;17.42;;
29184;SDS011;16233;47.964;-3.842;2022-11-04T06:54:31;23.98;;;17.90;;
29184;SDS011;16233;47.964;-3.842;2022-11-04T06:56:31;21.80;;;17.52;;
29184;SDS011;16233;47.964;-3.842;2022-11-04T06:58:32;23.73;;;19.13;;
29184;SDS011;16233;47.964;-3.842;2022-11-04T07:00:33;20.77;;;17.67;;
29184;SDS011;16233;47.964;-3.842;2022-11-04T07:02:35;21.83;;;19.20;;
29184;SDS011;16233;47.964;-3.842;2022-11-04T07:04:36;28.35;;;18.85;;
29184;SDS011;16233;47.964;-3.842;2022-11-04T07:06:40;19.45;;;17.55;;
29184;SDS011;16233;47.964;-3.842;2022-11-04T07:08:41;18.85;;;16.88;;
29184;SDS011;16233;47.964;-3.842;2022-11-04T07:10:42;19.17;;;17.30;;
29184;SDS011;16233;47.964;-3.842;2022-11-04T07:12:43;21.63;;;19.15;;
29184;SDS011;16233;47.964;-3.842;2022-11-04T07:14:44;26.27;;;17.67;;
29184;SDS011;16233;47.964;-3.842;2022-11-04T07:16:48;22.10;;;17.17;;
29184;SDS011;16233;47.964;-3.842;2022-11-04T07:18:49;19.42;;;17.85;;
29184;SDS011;16233;47.964;-3.842;2022-11-04T07:20:50;18.10;;;16.33;;
29184;SDS011;16233;47.964;-3.842;2022-11-04T07:22:54;19.85;;;16.45;;
29184;SDS011;16233;47.964;-3.842;2022-11-04T07:24:55;22.23;;;18.00;;
29184;SDS011;16233;47.964;-3.842;2022-11-04T07:26:56;19.67;;;17.60;;
29184;SDS011;16233;47.964;-3.842;2022-11-04T07:28:57;21.92;;;17.10;;
29184;SDS011;16233;47.964;-3.842;2022-11-04T07:30:58;22.77;;;19.35;;
29184;SDS011;16233;47.964;-3.842;2022-11-04T07:33:00;19.85;;;17.85;;
29184;SDS011;16233;47.964;-3.842;2022-11-04T07:35:01;23.85;;;18.40;;
29184;SDS011;16233;47.964;-3.842;2022-11-04T07:37:03;30.50;;;17.67;;
29184;SDS011;16233;47.964;-3.842;2022-11-04T07:39:05;18.48;;;16.83;;
29184;SDS011;16233;47.964;-3.842;2022-11-04T07:41:06;19.92;;;18.15;;
29184;SDS011;16233;47.964;-3.842;2022-11-04T07:43:07;21.50;;;18.58;;
29184;SDS011;16233;47.964;-3.842;2022-11-04T07:45:08;22.88;;;19.05;;
29184;SDS011;16233;47.964;-3.842;2022-11-04T07:47:09;21.42;;;17.67;;
29184;SDS011;16233;47.964;-3.842;2022-11-04T07:49:10;19.23;;;17.38;;
29184;SDS011;16233;47.964;-3.842;2022-11-04T07:51:12;22.15;;;18.50;;
29184;SDS011;16233;47.964;-3.842;2022-11-04T07:53:15;20.98;;;18.48;;
29184;SDS011;16233;47.964;-3.842;2022-11-04T07:55:17;23.85;;;17.77;;
29184;SDS011;16233;47.964;-3.842;2022-11-04T07:57:19;21.88;;;17.92;;
29184;SDS011;16233;47.964;-3.842;2022-11-04T07:59:20;21.35;;;19.27;;
29184;SDS011;16233;47.964;-3.842;2022-11-04T08:01:21;23.75;;;18.02;;
29184;SDS011;16233;47.964;-3.842;2022-11-04T08:03:23;22.95;;;20.08;;
29184;SDS011;16233;47.964;-3.842;2022-11-04T08:05:24;19.23;;;17.05;;
29184;SDS011;16233;47.964;-3.842;2022-11-04T08:07:25;21.42;;;17.80;;
29184;SDS011;16233;47.964;-3.842;2022-11-04T08:09:26;24.30;;;17.33;;
29184;SDS011;16233;47.964;-3.842;2022-11-04T08:11:29;22.10;;;19.70;;
29184;SDS011;16233;47.964;-3.842;2022-11-04T08:13:30;25.70;;;17.65;;
29184;SDS011;16233;47.964;-3.842;2022-11-04T08:15:34;23.85;;;17.52;;
29184;SDS011;16233;47.964;-3.842;2022-11-04T08:17:35;25.45;;;17.92;;
29184;SDS011;16233;47.964;-3.842;2022-11-04T08:19:36;28.70;;;18.02;;
29184;SDS011;16233;47.964;-3.842;2022-11-04T08:21:37;20.23;;;18.25;;
29184;SDS011;16233;47.964;-3.842;2022-11-04T08:23:38;20.52;;;18.27;;
29184;SDS011;16233;47.964;-3.842;2022-11-04T08:25:39;22.23;;;18.05;;
29184;SDS011;16233;47.964;-3.842;2022-11-04T08:27:42;19.55;;;17.88;;
29184;SDS011;16233;47.964;-3.842;2022-11-04T08:29:53;23.92;;;19.77;;
29184;SDS011;16233;47.964;-3.842;2022-11-04T08:31:54;24.75;;;17.70;;
29184;SDS011;16233;47.964;-3.842;2022-11-04T08:33:55;22.52;;;17.75;;
29184;SDS011;16233;47.964;-3.842;2022-11-04T08:35:58;26.17;;;19.10;;
29184;SDS011;16233;47.964;-3.842;2022-11-04T08:38:01;26.38;;;18.98;;
29184;SDS011;16233;47.964;-3.842;2022-11-04T08:40:02;21.02;;;18.23;;
29184;SDS011;16233;47.964;-3.842;2022-11-04T08:42:03;26.27;;;19.35;;
29184;SDS011;16233;47.964;-3.842;2022-11-04T08:44:06;30.25;;;19.00;;
29184;SDS011;16233;47.964;-3.842;2022-11-04T08:46:08;31.50;;;22.52;;
29184;SDS011;16233;47.964;-3.842;2022-11-04T08:48:10;22.88;;;18.77;;
29184;SDS011;16233;47.964;-3.842;2022-11-04T08:50:12;22.63;;;18.35;;
29184;SDS011;16233;47.964;-3.842;2022-11-04T08:52:13;29.30;;;18.25;;
29184;SDS011;16233;47.964;-3.842;2022-11-04T08:54:14;26.63;;;17.92;;
29184;SDS011;16233;47.964;-3.842;2022-11-04T08:56:16;22.80;;;17.63;;
29184;SDS011;16233;47.964;-3.842;2022-11-04T08:58:19;23.73;;;17.95;;
29184;SDS011;16233;47.964;-3.842;2022-11-04T09:00:22;24.65;;;20.60;;
29184;SDS011;16233;47.964;-3.842;2022-11-04T09:02:23;21.63;;;18.02;;
29184;SDS011;16233;47.964;-3.842;2022-11-04T09:04:24;20.63;;;18.38;;
29184;SDS011;16233;47.964;-3.842;2022-11-04T09:06:26;21.33;;;18.85;;
29184;SDS011;16233;47.964;-3.842;2022-11-04T09:08:29;23.33;;;20.23;;
29184;SDS011;16233;47.964;-3.842;2022-11-04T09:10:30;22.33;;;19.77;;
29184;SDS011;16233;47.964;-3.842;2022-11-04T09:12:31;21.63;;;19.48;;
29184;SDS011;16233;47.964;-3.842;2022-11-04T09:14:32;25.42;;;18.08;;
29184;SDS011;16233;47.964;-3.842;2022-11-04T09:16:34;24.60;;;19.73;;
29184;SDS011;16233;47.964;-3.842;2022-11-04T09:18:36;22.15;;;19.80;;
29184;SDS011;16233;47.964;-3.842;2022-11-04T09:20:38;22.23;;;18.80;;
29184;SDS011;16233;47.964;-3.842;2022-11-04T09:22:39;21.08;;;19.08;;
29184;SDS011;16233;47.964;-3.842;2022-11-04T09:24:40;23.27;;;20.77;;
29184;SDS011;16233;47.964;-3.842;2022-11-04T09:26:41;24.20;;;21.77;;
29184;SDS011;16233;47.964;-3.842;2022-11-04T09:28:42;24.23;;;21.17;;
29184;SDS011;16233;47.964;-3.842;2022-11-04T09:30:44;23.25;;;21.02;;
29184;SDS011;16233;47.964;-3.842;2022-11-04T09:32:48;29.50;;;23.00;;
29184;SDS011;16233;47.964;-3.842;2022-11-04T09:34:49;24.58;;;22.10;;
29184;SDS011;16233;47.964;-3.842;2022-11-04T09:36:49;21.88;;;20.05;;
29184;SDS011;16233;47.964;-3.842;2022-11-04T09:38:54;24.05;;;21.63;;
29184;SDS011;16233;47.964;-3.842;2022-11-04T09:40:55;24.02;;;22.10;;
29184;SDS011;16233;47.964;-3.842;2022-11-04T09:43:01;24.50;;;22.70;;
29184;SDS011;16233;47.964;-3.842;2022-11-04T09:45:10;25.15;;;23.45;;
29184;SDS011;16233;47.964;-3.842;2022-11-04T09:47:12;28.25;;;25.65;;
29184;SDS011;16233;47.964;-3.842;2022-11-04T09:49:15;27.70;;;24.83;;
29184;SDS011;16233;47.964;-3.842;2022-11-04T09:51:16;25.42;;;23.45;;
29184;SDS011;16233;47.964;-3.842;2022-11-04T09:53:20;1999.90;;;999.90;;
29184;SDS011;16233;47.964;-3.842;2022-11-04T09:55:28;25.88;;;23.77;;
29184;SDS011;16233;47.964;-3.842;2022-11-04T09:57:33;1999.90;;;999.90;;
29184;SDS011;16233;47.964;-3.842;2022-11-04T09:59:34;29.10;;;26.38;;
29184;SDS011;16233;47.964;-3.842;2022-11-04T10:01:36;28.63;;;26.63;;
29184;SDS011;16233;47.964;-3.842;2022-11-04T10:03:44;26.90;;;24.80;;
29184;SDS011;16233;47.964;-3.842;2022-11-04T10:05:58;28.20;;;25.75;;
29184;SDS011;16233;47.964;-3.842;2022-11-04T10:08:20;1999.90;;;999.90;;
29184;SDS011;16233;47.964;-3.842;2022-11-04T10:10:38;30.73;;;28.27;;
29184;SDS011;16233;47.964;-3.842;2022-11-04T10:12:49;30.67;;;27.70;;
29184;SDS011;16233;47.964;-3.842;2022-11-04T10:17:39;1999.90;;;999.90;;
29184;SDS011;16233;47.964;-3.842;2022-11-04T10:20:00;1999.90;;;999.90;;
29184;SDS011;16233;47.964;-3.842;2022-11-04T10:22:16;1999.90;;;999.90;;
29184;SDS011;16233;47.964;-3.842;2022-11-04T10:24:30;1999.90;;;999.90;;
29184;SDS011;16233;47.964;-3.842;2022-11-04T10:26:40;1999.90;;;999.90;;
29184;SDS011;16233;47.964;-3.842;2022-11-04T10:28:45;1999.90;;;999.90;;
29184;SDS011;16233;47.964;-3.842;2022-11-04T10:30:49;1999.90;;;999.90;;
29184;SDS011;16233;47.964;-3.842;2022-11-04T10:32:54;1999.90;;;999.90;;
29184;SDS011;16233;47.964;-3.842;2022-11-04T10:35:03;1999.90;;;999.90;;
29184;SDS011;16233;47.964;-3.842;2022-11-04T10:37:09;1999.90;;;999.90;;
29184;SDS011;16233;47.964;-3.842;2022-11-04T10:39:14;1999.90;;;999.90;;
29184;SDS011;16233;47.964;-3.842;2022-11-04T10:41:24;1999.90;;;999.90;;
29184;SDS011;16233;47.964;-3.842;2022-11-04T10:43:30;1999.90;;;999.90;;
29184;SDS011;16233;47.964;-3.842;2022-11-04T10:45:35;1999.90;;;999.90;;
29184;SDS011;16233;47.964;-3.842;2022-11-04T10:47:42;1999.90;;;999.90;;
29184;SDS011;16233;47.964;-3.842;2022-11-04T10:49:53;1999.90;;;999.90;;
29184;SDS011;16233;47.964;-3.842;2022-11-04T10:52:02;1999.90;;;999.90;;
29184;SDS011;16233;47.964;-3.842;2022-11-04T10:54:06;1999.90;;;999.90;;
29184;SDS011;16233;47.964;-3.842;2022-11-04T10:56:12;1999.90;;;999.90;;
29184;SDS011;16233;47.964;-3.842;2022-11-04T10:58:21;1999.90;;;999.90;;
29184;SDS011;16233;47.964;-3.842;2022-11-04T11:00:34;1999.90;;;999.90;;
29184;SDS011;16233;47.964;-3.842;2022-11-04T11:02:43;1999.90;;;999.90;;
29184;SDS011;16233;47.964;-3.842;2022-11-04T11:04:46;1999.90;;;999.90;;
29184;SDS011;16233;47.964;-3.842;2022-11-04T11:06:47;1999.90;;;999.90;;
29184;SDS011;16233;47.964;-3.842;2022-11-04T11:08:50;1999.90;;;999.90;;
29184;SDS011;16233;47.964;-3.842;2022-11-04T11:10:53;1999.90;;;999.90;;
29184;SDS011;16233;47.964;-3.842;2022-11-04T11:12:55;1999.90;;;999.90;;
29184;SDS011;16233;47.964;-3.842;2022-11-04T11:14:58;1999.90;;;999.90;;
29184;SDS011;16233;47.964;-3.842;2022-11-04T11:17:20;1999.90;;;999.90;;
29184;SDS011;16233;47.964;-3.842;2022-11-04T11:19:23;1999.90;;;999.90;;
29184;SDS011;16233;47.964;-3.842;2022-11-04T11:21:24;1999.90;;;999.90;;
29184;SDS011;16233;47.964;-3.842;2022-11-04T11:23:33;1999.90;;;999.90;;
29184;SDS011;16233;47.964;-3.842;2022-11-04T11:25:44;1999.90;;;999.90;;
29184;SDS011;16233;47.964;-3.842;2022-11-04T11:27:50;1999.90;;;999.90;;
29184;SDS011;16233;47.964;-3.842;2022-11-04T11:29:55;1999.90;;;999.90;;
29184;SDS011;16233;47.964;-3.842;2022-11-04T11:31:56;1999.90;;;999.90;;
29184;SDS011;16233;47.964;-3.842;2022-11-04T11:33:59;1999.90;;;999.90;;
29184;SDS011;16233;47.964;-3.842;2022-11-04T11:36:04;1999.90;;;999.90;;
29184;SDS011;16233;47.964;-3.842;2022-11-04T11:38:15;1999.90;;;999.90;;
29184;SDS011;16233;47.964;-3.842;2022-11-04T11:40:27;1999.90;;;999.90;;
29184;SDS011;16233;47.964;-3.842;2022-11-04T11:42:30;1999.90;;;999.90;;
29184;SDS011;16233;47.964;-3.842;2022-11-04T11:44:32;1999.90;;;999.90;;
29184;SDS011;16233;47.964;-3.842;2022-11-04T11:46:36;1999.90;;;999.90;;
29184;SDS011;16233;47.964;-3.842;2022-11-04T11:48:38;1999.90;;;999.90;;
29184;SDS011;16233;47.964;-3.842;2022-11-04T11:50:41;1999.90;;;999.90;;
29184;SDS011;16233;47.964;-3.842;2022-11-04T11:52:54;1999.90;;;999.90;;